createdAt,value
2017-05-28T00:00:27.397Z,0
2017-05-28T00:01:27.422Z,0
2017-05-28T00:02:26.831Z,0
2017-05-28T00:03:27.175Z,0
2017-05-28T00:04:27.519Z,0
2017-05-28T00:05:27.553Z,0
2017-05-28T00:06:26.954Z,0
2017-05-28T00:07:27.294Z,0
2017-05-28T00:08:27.324Z,0
2017-05-28T00:09:27.668Z,0
2017-05-28T00:10:27.069Z,0
2017-05-28T00:11:27.112Z,0
2017-05-28T00:12:27.444Z,0
2017-05-28T00:13:27.792Z,0
2017-05-28T00:14:27.823Z,0
2017-05-28T00:15:27.850Z,0
2017-05-28T00:16:27.259Z,0
2017-05-28T00:17:27.602Z,0
2017-05-28T00:18:27.952Z,0
2017-05-28T00:19:28.222Z,0
2017-05-28T00:20:28.016Z,0
2017-05-28T00:21:27.410Z,0
2017-05-28T00:22:27.439Z,0
2017-05-28T00:23:27.784Z,0
2017-05-28T00:24:28.060Z,0
2017-05-28T00:25:28.157Z,0
2017-05-28T00:26:27.878Z,0
2017-05-28T00:27:28.215Z,0
2017-05-28T00:28:28.256Z,0
2017-05-28T00:29:28.224Z,0
2017-05-28T00:30:27.984Z,0
2017-05-28T00:31:28.027Z,0
2017-05-28T00:32:28.048Z,0
2017-05-28T00:33:28.093Z,0
2017-05-28T00:34:28.627Z,0
2017-05-28T00:35:28.450Z,0
2017-05-28T00:36:28.187Z,0
2017-05-28T00:37:28.514Z,0
2017-05-28T00:38:28.553Z,0
2017-05-28T00:39:28.517Z,0
2017-05-28T00:40:28.608Z,0
2017-05-28T00:41:28.646Z,0
2017-05-28T00:42:28.359Z,0
2017-05-28T00:43:28.392Z,0
2017-05-28T00:44:28.928Z,0
2017-05-28T00:45:28.450Z,0
2017-05-28T00:46:28.791Z,0
2017-05-28T00:47:28.508Z,0
2017-05-28T00:48:28.216Z,0
2017-05-28T00:49:29.135Z,0
2017-05-28T00:50:28.914Z,0
2017-05-28T00:51:28.938Z,0
2017-05-28T00:52:28.656Z,0
2017-05-28T00:53:28.700Z,0
2017-05-28T00:54:28.344Z,0
2017-05-28T00:55:28.749Z,0
2017-05-28T00:56:29.094Z,0
2017-05-28T00:57:29.119Z,0
2017-05-28T00:58:29.151Z,0
2017-05-28T00:59:29.385Z,0
2017-05-28T01:00:28.585Z,0
2017-05-28T01:01:28.937Z,0
2017-05-28T01:02:28.969Z,0
2017-05-28T01:03:29.304Z,0
2017-05-28T01:04:29.276Z,0
2017-05-28T01:05:29.371Z,0
2017-05-28T01:06:29.395Z,0
2017-05-28T01:07:29.428Z,0
2017-05-28T01:08:29.460Z,0
2017-05-28T01:09:29.736Z,0
2017-05-28T01:10:29.199Z,0
2017-05-28T01:11:29.559Z,0
2017-05-28T01:12:29.579Z,0
2017-05-28T01:13:29.611Z,0
2017-05-28T01:14:29.885Z,0
2017-05-28T01:15:29.666Z,0
2017-05-28T01:16:29.706Z,0
2017-05-28T01:17:29.109Z,0
2017-05-28T01:18:29.752Z,0
2017-05-28T01:19:29.467Z,0
2017-05-28T01:20:29.515Z,0
2017-05-28T01:21:29.536Z,0
2017-05-28T01:22:29.568Z,0
2017-05-28T01:23:29.908Z,0
2017-05-28T01:24:29.832Z,0
2017-05-28T01:25:29.659Z,0
2017-05-28T01:26:29.999Z,0
2017-05-28T01:27:29.408Z,0
2017-05-28T01:28:29.745Z,0
2017-05-28T01:29:29.720Z,0
2017-05-28T01:30:30.122Z,0
2017-05-28T01:31:30.147Z,0
2017-05-28T01:32:29.864Z,0
2017-05-28T01:33:29.900Z,0
2017-05-28T01:34:30.187Z,0
2017-05-28T01:35:29.641Z,0
2017-05-28T01:36:30.304Z,0
2017-05-28T01:37:29.706Z,0
2017-05-28T01:38:30.372Z,0
2017-05-28T01:39:30.028Z,0
2017-05-28T01:40:29.809Z,0
2017-05-28T01:41:30.159Z,0
2017-05-28T01:42:30.172Z,0
2017-05-28T01:43:30.202Z,0
2017-05-28T01:44:30.177Z,0
2017-05-28T01:45:29.957Z,0
2017-05-28T01:46:29.972Z,0
2017-05-28T01:47:30.626Z,0
2017-05-28T01:48:30.665Z,0
2017-05-28T01:49:30.626Z,0
2017-05-28T01:50:30.419Z,0
2017-05-28T01:51:30.456Z,0
2017-05-28T01:52:30.161Z,0
2017-05-28T01:53:30.817Z,0
2017-05-28T01:54:31.096Z,0
2017-05-28T01:55:30.562Z,0
2017-05-28T01:56:30.907Z,0
2017-05-28T01:57:30.941Z,0
2017-05-28T01:58:30.716Z,0
2017-05-28T01:59:31.305Z,0
2017-05-28T02:00:31.055Z,0
2017-05-28T02:01:30.751Z,0
2017-05-28T02:02:31.083Z,0
2017-05-28T02:03:30.818Z,0
2017-05-28T02:04:30.774Z,0
2017-05-28T02:05:30.863Z,0
2017-05-28T02:06:30.899Z,0
2017-05-28T02:07:31.240Z,0
2017-05-28T02:08:31.261Z,0
2017-05-28T02:09:31.185Z,0
2017-05-28T02:10:31.327Z,0
2017-05-28T02:11:31.041Z,0
2017-05-28T02:12:30.757Z,0
2017-05-28T02:13:30.793Z,0
2017-05-28T02:14:31.703Z,0
2017-05-28T02:15:31.474Z,0
2017-05-28T02:16:31.497Z,0
2017-05-28T02:17:31.220Z,0
2017-05-28T02:18:31.578Z,0
2017-05-28T02:19:30.971Z,0
2017-05-28T02:20:31.631Z,0
2017-05-28T02:21:31.027Z,0
2017-05-28T02:22:31.697Z,0
2017-05-28T02:23:31.729Z,0
2017-05-28T02:24:31.745Z,0
2017-05-28T02:25:31.463Z,0
2017-05-28T02:26:31.805Z,0
2017-05-28T02:27:31.849Z,0
2017-05-28T02:28:31.878Z,0
2017-05-28T02:29:31.584Z,0
2017-05-28T02:30:31.928Z,0
2017-05-28T02:31:31.962Z,0
2017-05-28T02:32:31.980Z,0
2017-05-28T02:33:31.389Z,0
2017-05-28T02:34:31.479Z,0
2017-05-28T02:35:31.764Z,0
2017-05-28T02:36:31.797Z,0
2017-05-28T02:37:31.833Z,0
2017-05-28T02:38:31.854Z,0
2017-05-28T02:39:31.885Z,0
2017-05-28T02:40:31.912Z,0
2017-05-28T02:41:31.632Z,0
2017-05-28T02:42:31.974Z,0
2017-05-28T02:43:31.699Z,0
2017-05-28T02:44:32.027Z,0
2017-05-28T02:45:32.064Z,0
2017-05-28T02:46:32.107Z,0
2017-05-28T02:47:32.437Z,0
2017-05-28T02:48:32.154Z,0
2017-05-28T02:49:32.216Z,0
2017-05-28T02:50:32.212Z,0
2017-05-28T02:51:32.248Z,0
2017-05-28T02:52:32.588Z,0
2017-05-28T02:53:31.990Z,0
2017-05-28T02:54:32.339Z,0
2017-05-28T02:55:32.052Z,0
2017-05-28T02:56:32.721Z,0
2017-05-28T02:57:32.101Z,0
2017-05-28T02:58:31.826Z,0
2017-05-28T02:59:32.180Z,0
2017-05-28T03:00:32.520Z,0
2017-05-28T03:01:32.548Z,0
2017-05-28T03:02:32.256Z,0
2017-05-28T03:03:32.915Z,0
2017-05-28T03:04:32.959Z,0
2017-05-28T03:05:32.664Z,0
2017-05-28T03:06:33.004Z,0
2017-05-28T03:07:33.041Z,0
2017-05-28T03:08:33.072Z,0
2017-05-28T03:09:33.099Z,4
2017-05-28T03:10:32.825Z,4
2017-05-28T03:11:32.849Z,4
2017-05-28T03:12:33.190Z,0
2017-05-28T03:13:33.219Z,4
2017-05-28T03:14:32.623Z,4
2017-05-28T03:15:33.532Z,4
2017-05-28T03:16:33.314Z,4
2017-05-28T03:17:33.027Z,8
2017-05-28T03:18:32.749Z,4
2017-05-28T03:19:33.400Z,8
2017-05-28T03:20:33.095Z,12
2017-05-28T03:21:33.501Z,8
2017-05-28T03:22:32.870Z,12
2017-05-28T03:23:33.211Z,12
2017-05-28T03:24:33.228Z,16
2017-05-28T03:25:33.472Z,16
2017-05-28T03:26:33.289Z,20
2017-05-28T03:27:33.634Z,20
2017-05-28T03:28:33.350Z,20
2017-05-28T03:29:33.072Z,24
2017-05-28T03:30:33.979Z,28
2017-05-28T03:31:33.449Z,28
2017-05-28T03:32:33.166Z,28
2017-05-28T03:33:33.818Z,36
2017-05-28T03:34:33.848Z,36
2017-05-28T03:35:34.131Z,40
2017-05-28T03:36:33.597Z,40
2017-05-28T03:37:33.938Z,44
2017-05-28T03:38:33.340Z,48
2017-05-28T03:39:33.683Z,52
2017-05-28T03:40:33.649Z,56
2017-05-28T03:41:34.056Z,60
2017-05-28T03:42:33.771Z,64
2017-05-28T03:43:33.491Z,68
2017-05-28T03:44:34.144Z,72
2017-05-28T03:45:34.425Z,76
2017-05-28T03:46:34.205Z,80
2017-05-28T03:47:33.922Z,84
2017-05-28T03:48:33.956Z,88
2017-05-28T03:49:34.301Z,96
2017-05-28T03:50:34.225Z,100
2017-05-28T03:51:33.730Z,108
2017-05-28T03:52:34.075Z,112
2017-05-28T03:53:34.423Z,112
2017-05-28T03:54:34.447Z,120
2017-05-28T03:55:34.417Z,128
2017-05-28T03:56:34.191Z,128
2017-05-28T03:57:34.543Z,136
2017-05-28T03:58:34.567Z,140
2017-05-28T03:59:34.291Z,144
2017-05-28T04:00:34.569Z,152
2017-05-28T04:01:34.669Z,160
2017-05-28T04:02:34.371Z,160
2017-05-28T04:03:34.400Z,168
2017-05-28T04:04:34.436Z,172
2017-05-28T04:05:35.024Z,176
2017-05-28T04:06:34.806Z,184
2017-05-28T04:07:34.522Z,188
2017-05-28T04:08:34.875Z,192
2017-05-28T04:09:34.588Z,200
2017-05-28T04:10:34.860Z,204
2017-05-28T04:11:34.327Z,204
2017-05-28T04:12:34.986Z,212
2017-05-28T04:13:34.703Z,216
2017-05-28T04:14:34.724Z,220
2017-05-28T04:15:34.702Z,224
2017-05-28T04:16:35.107Z,228
2017-05-28T04:17:35.136Z,232
2017-05-28T04:18:35.164Z,232
2017-05-28T04:19:35.202Z,240
2017-05-28T04:20:35.427Z,244
2017-05-28T04:21:35.253Z,248
2017-05-28T04:22:34.665Z,252
2017-05-28T04:23:34.693Z,256
2017-05-28T04:24:35.344Z,260
2017-05-28T04:25:35.625Z,264
2017-05-28T04:26:35.407Z,268
2017-05-28T04:27:35.438Z,276
2017-05-28T04:28:34.840Z,280
2017-05-28T04:29:35.496Z,280
2017-05-28T04:30:35.421Z,288
2017-05-28T04:31:35.242Z,292
2017-05-28T04:32:35.580Z,296
2017-05-28T04:33:35.610Z,304
2017-05-28T04:34:35.328Z,304
2017-05-28T04:35:35.922Z,312
2017-05-28T04:36:35.077Z,312
2017-05-28T04:37:35.429Z,320
2017-05-28T04:38:35.766Z,324
2017-05-28T04:39:35.793Z,328
2017-05-28T04:40:35.766Z,336
2017-05-28T04:41:35.848Z,340
2017-05-28T04:42:35.883Z,344
2017-05-28T04:43:35.915Z,348
2017-05-28T04:44:35.939Z,348
2017-05-28T04:45:35.905Z,352
2017-05-28T04:46:35.683Z,352
2017-05-28T04:47:35.719Z,356
2017-05-28T04:48:35.752Z,360
2017-05-28T04:49:36.094Z,364
2017-05-28T04:50:36.362Z,364
2017-05-28T04:51:35.838Z,368
2017-05-28T04:52:35.871Z,368
2017-05-28T04:53:36.216Z,372
2017-05-28T04:54:35.926Z,372
2017-05-28T04:55:36.525Z,376
2017-05-28T04:56:36.307Z,380
2017-05-28T04:57:36.023Z,380
2017-05-28T04:58:36.049Z,384
2017-05-28T04:59:35.765Z,388
2017-05-28T05:00:36.674Z,392
2017-05-28T05:01:36.463Z,396
2017-05-28T05:02:36.168Z,400
2017-05-28T05:03:36.195Z,400
2017-05-28T05:04:36.225Z,408
2017-05-28T05:05:36.818Z,408
2017-05-28T05:06:35.975Z,416
2017-05-28T05:07:36.626Z,420
2017-05-28T05:08:36.025Z,424
2017-05-28T05:09:36.688Z,428
2017-05-28T05:10:36.605Z,432
2017-05-28T05:11:36.431Z,436
2017-05-28T05:12:36.777Z,440
2017-05-28T05:13:36.484Z,444
2017-05-28T05:14:36.836Z,452
2017-05-28T05:15:37.114Z,456
2017-05-28T05:16:36.580Z,460
2017-05-28T05:17:36.924Z,468
2017-05-28T05:18:36.644Z,476
2017-05-28T05:19:37.044Z,480
2017-05-28T05:20:37.262Z,484
2017-05-28T05:21:37.048Z,488
2017-05-28T05:22:37.079Z,496
2017-05-28T05:23:36.792Z,500
2017-05-28T05:24:36.826Z,504
2017-05-28T05:25:37.417Z,512
2017-05-28T05:26:36.879Z,516
2017-05-28T05:27:37.232Z,528
2017-05-28T05:28:37.262Z,532
2017-05-28T05:29:36.973Z,544
2017-05-28T05:30:36.942Z,548
2017-05-28T05:31:37.344Z,560
2017-05-28T05:32:37.065Z,572
2017-05-28T05:33:37.409Z,576
2017-05-28T05:34:37.119Z,588
2017-05-28T05:35:37.714Z,600
2017-05-28T05:36:37.493Z,608
2017-05-28T05:37:37.212Z,616
2017-05-28T05:38:37.245Z,620
2017-05-28T05:39:37.279Z,624
2017-05-28T05:40:37.544Z,624
2017-05-28T05:41:37.643Z,624
2017-05-28T05:42:37.680Z,620
2017-05-28T05:43:37.081Z,624
2017-05-28T05:44:37.412Z,624
2017-05-28T05:45:37.651Z,624
2017-05-28T05:46:37.164Z,632
2017-05-28T05:47:37.824Z,636
2017-05-28T05:48:37.861Z,640
2017-05-28T05:49:37.254Z,640
2017-05-28T05:50:37.537Z,644
2017-05-28T05:51:37.948Z,648
2017-05-28T05:52:37.348Z,648
2017-05-28T05:53:37.693Z,652
2017-05-28T05:54:38.038Z,656
2017-05-28T05:55:38.314Z,660
2017-05-28T05:56:37.468Z,668
2017-05-28T05:57:37.809Z,672
2017-05-28T05:58:38.165Z,680
2017-05-28T05:59:37.544Z,688
2017-05-28T06:00:38.459Z,696
2017-05-28T06:01:37.935Z,708
2017-05-28T06:02:38.269Z,716
2017-05-28T06:03:38.305Z,724
2017-05-28T06:04:38.025Z,732
2017-05-28T06:05:38.611Z,740
2017-05-28T06:06:38.471Z,748
2017-05-28T06:07:38.417Z,752
2017-05-28T06:08:38.458Z,756
2017-05-28T06:09:38.478Z,756
2017-05-28T06:10:38.443Z,768
2017-05-28T06:11:37.911Z,772
2017-05-28T06:12:38.265Z,780
2017-05-28T06:13:38.606Z,780
2017-05-28T06:14:38.630Z,780
2017-05-28T06:15:38.279Z,772
2017-05-28T06:16:38.375Z,780
2017-05-28T06:17:38.722Z,776
2017-05-28T06:18:38.749Z,768
2017-05-28T06:19:38.470Z,760
2017-05-28T06:20:38.378Z,752
2017-05-28T06:21:38.843Z,744
2017-05-28T06:22:38.864Z,732
2017-05-28T06:23:38.590Z,716
2017-05-28T06:24:38.615Z,696
2017-05-28T06:25:38.906Z,676
2017-05-28T06:26:38.684Z,664
2017-05-28T06:27:39.020Z,656
2017-05-28T06:28:38.737Z,648
2017-05-28T06:29:38.453Z,648
2017-05-28T06:30:38.735Z,640
2017-05-28T06:31:39.145Z,632
2017-05-28T06:32:39.190Z,624
2017-05-28T06:33:39.277Z,616
2017-05-28T06:34:38.606Z,608
2017-05-28T06:35:39.204Z,600
2017-05-28T06:36:38.665Z,604
2017-05-28T06:37:39.325Z,604
2017-05-28T06:38:39.032Z,608
2017-05-28T06:39:39.383Z,616
2017-05-28T06:40:39.348Z,620
2017-05-28T06:41:39.132Z,620
2017-05-28T06:42:39.149Z,620
2017-05-28T06:43:39.505Z,616
2017-05-28T06:44:39.221Z,616
2017-05-28T06:45:39.238Z,612
2017-05-28T06:46:39.588Z,612
2017-05-28T06:47:39.623Z,608
2017-05-28T06:48:39.033Z,600
2017-05-28T06:49:39.050Z,600
2017-05-28T06:50:39.646Z,596
2017-05-28T06:51:39.738Z,600
2017-05-28T06:52:39.769Z,608
2017-05-28T06:53:39.490Z,616
2017-05-28T06:54:39.206Z,624
2017-05-28T06:55:40.104Z,636
2017-05-28T06:56:39.881Z,640
2017-05-28T06:57:39.925Z,652
2017-05-28T06:58:39.326Z,656
2017-05-28T06:59:40.035Z,664
2017-05-28T07:00:40.264Z,664
2017-05-28T07:01:40.039Z,668
2017-05-28T07:02:39.753Z,672
2017-05-28T07:03:40.111Z,680
2017-05-28T07:04:40.136Z,684
2017-05-28T07:05:40.404Z,688
2017-05-28T07:06:40.197Z,692
2017-05-28T07:07:40.226Z,696
2017-05-28T07:08:40.250Z,696
2017-05-28T07:09:39.974Z,700
2017-05-28T07:10:39.939Z,704
2017-05-28T07:11:40.340Z,704
2017-05-28T07:12:40.370Z,700
2017-05-28T07:13:40.091Z,704
2017-05-28T07:14:40.115Z,704
2017-05-28T07:15:39.520Z,704
2017-05-28T07:16:40.181Z,704
2017-05-28T07:17:40.513Z,708
2017-05-28T07:18:40.549Z,704
2017-05-28T07:19:40.570Z,712
2017-05-28T07:20:40.612Z,712
2017-05-28T07:21:40.333Z,716
2017-05-28T07:22:40.357Z,716
2017-05-28T07:23:40.386Z,716
2017-05-28T07:24:40.412Z,716
2017-05-28T07:25:40.136Z,716
2017-05-28T07:26:40.790Z,716
2017-05-28T07:27:40.510Z,716
2017-05-28T07:28:40.846Z,720
2017-05-28T07:29:40.570Z,720
2017-05-28T07:30:40.924Z,724
2017-05-28T07:31:40.312Z,720
2017-05-28T07:32:40.665Z,720
2017-05-28T07:33:40.677Z,720
2017-05-28T07:34:40.761Z,728
2017-05-28T07:35:41.064Z,732
2017-05-28T07:36:41.289Z,736
2017-05-28T07:37:40.494Z,740
2017-05-28T07:38:40.835Z,740
2017-05-28T07:39:40.874Z,748
2017-05-28T07:40:41.211Z,748
2017-05-28T07:41:41.493Z,760
2017-05-28T07:42:40.963Z,764
2017-05-28T07:43:41.301Z,772
2017-05-28T07:44:41.016Z,780
2017-05-28T07:45:41.373Z,792
2017-05-28T07:46:41.646Z,804
2017-05-28T07:47:41.425Z,820
2017-05-28T07:48:41.455Z,836
2017-05-28T07:49:41.176Z,856
2017-05-28T07:50:41.195Z,876
2017-05-28T07:51:41.173Z,896
2017-05-28T07:52:41.271Z,920
2017-05-28T07:53:40.986Z,936
2017-05-28T07:54:41.640Z,956
2017-05-28T07:55:41.352Z,972
2017-05-28T07:56:41.702Z,988
2017-05-28T07:57:41.418Z,1008
2017-05-28T07:58:41.439Z,1028
2017-05-28T07:59:41.465Z,1048
2017-05-28T08:00:41.505Z,1068
2017-05-28T08:01:42.085Z,1088
2017-05-28T08:02:41.257Z,1108
2017-05-28T08:03:41.899Z,1128
2017-05-28T08:04:41.945Z,1148
2017-05-28T08:05:41.649Z,1168
2017-05-28T08:06:42.238Z,1180
2017-05-28T08:07:42.030Z,1196
2017-05-28T08:08:41.731Z,1216
2017-05-28T08:09:41.780Z,1236
2017-05-28T08:10:42.116Z,1252
2017-05-28T08:11:42.030Z,1268
2017-05-28T08:12:42.182Z,1272
2017-05-28T08:13:41.894Z,1284
2017-05-28T08:14:42.264Z,1312
2017-05-28T08:15:41.956Z,1336
2017-05-28T08:16:42.550Z,1360
2017-05-28T08:17:41.692Z,1388
2017-05-28T08:18:42.358Z,1420
2017-05-28T08:19:42.388Z,1448
2017-05-28T08:20:42.414Z,1472
2017-05-28T08:21:42.762Z,1504
2017-05-28T08:22:42.476Z,1536
2017-05-28T08:23:42.520Z,1564
2017-05-28T08:24:42.224Z,1592
2017-05-28T08:25:42.565Z,1616
2017-05-28T08:26:42.846Z,1636
2017-05-28T08:27:42.647Z,1652
2017-05-28T08:28:42.664Z,1660
2017-05-28T08:29:42.690Z,1668
2017-05-28T08:30:42.717Z,1680
2017-05-28T08:31:42.998Z,1680
2017-05-28T08:32:42.780Z,1680
2017-05-28T08:33:42.816Z,1664
2017-05-28T08:34:42.838Z,1656
2017-05-28T08:35:42.553Z,1640
2017-05-28T08:36:43.158Z,1628
2017-05-28T08:37:42.942Z,1616
2017-05-28T08:38:42.959Z,1612
2017-05-28T08:39:42.992Z,1604
2017-05-28T08:40:42.709Z,1596
2017-05-28T08:41:42.946Z,1592
2017-05-28T08:42:42.774Z,1588
2017-05-28T08:43:42.800Z,1580
2017-05-28T08:44:43.140Z,1588
2017-05-28T08:45:43.169Z,1588
2017-05-28T08:46:43.447Z,1592
2017-05-28T08:47:43.252Z,1580
2017-05-28T08:48:43.255Z,1576
2017-05-28T08:49:43.295Z,1560
2017-05-28T08:50:43.321Z,1548
2017-05-28T08:51:43.296Z,1540
2017-05-28T08:52:43.394Z,1528
2017-05-28T08:53:43.116Z,1528
2017-05-28T08:54:43.134Z,1516
2017-05-28T08:55:43.178Z,1516
2017-05-28T08:56:43.750Z,1516
2017-05-28T08:57:43.539Z,1520
2017-05-28T08:58:43.259Z,1520
2017-05-28T08:59:43.593Z,1508
2017-05-28T09:00:43.633Z,1496
2017-05-28T09:01:43.905Z,1500
2017-05-28T09:02:43.375Z,1488
2017-05-28T09:03:43.728Z,1480
2017-05-28T09:04:43.752Z,1472
2017-05-28T09:05:43.774Z,1468
2017-05-28T09:06:44.061Z,1452
2017-05-28T09:07:43.531Z,1448
2017-05-28T09:08:43.870Z,1460
2017-05-28T09:09:43.906Z,1460
2017-05-28T09:10:43.930Z,1464
2017-05-28T09:11:43.927Z,1476
2017-05-28T09:12:43.383Z,1472
2017-05-28T09:13:44.021Z,1476
2017-05-28T09:14:43.741Z,1456
2017-05-28T09:15:43.448Z,1460
2017-05-28T09:16:44.054Z,1464
2017-05-28T09:17:43.833Z,1468
2017-05-28T09:18:43.865Z,1480
2017-05-28T09:19:43.891Z,1492
2017-05-28T09:20:43.924Z,1480
2017-05-28T09:21:44.515Z,1464
2017-05-28T09:22:44.297Z,1452
2017-05-28T09:23:43.707Z,1428
2017-05-28T09:24:43.725Z,1420
2017-05-28T09:25:44.070Z,1404
2017-05-28T09:26:44.307Z,1400
2017-05-28T09:27:44.142Z,1392
2017-05-28T09:28:44.480Z,1404
2017-05-28T09:29:43.883Z,1412
2017-05-28T09:30:44.226Z,1448
2017-05-28T09:31:44.822Z,1460
2017-05-28T09:32:44.287Z,1476
2017-05-28T09:33:44.634Z,1500
2017-05-28T09:34:44.662Z,1520
2017-05-28T09:35:44.378Z,1540
2017-05-28T09:36:44.985Z,1560
2017-05-28T09:37:44.748Z,1572
2017-05-28T09:38:44.789Z,1576
2017-05-28T09:39:44.199Z,1576
2017-05-28T09:40:44.843Z,1588
2017-05-28T09:41:45.067Z,1596
2017-05-28T09:42:44.903Z,1608
2017-05-28T09:43:44.932Z,1592
2017-05-28T09:44:44.653Z,1592
2017-05-28T09:45:44.990Z,1568
2017-05-28T09:46:44.970Z,1524
2017-05-28T09:47:45.059Z,1464
2017-05-28T09:48:44.772Z,1432
2017-05-28T09:49:45.118Z,1408
2017-05-28T09:50:45.140Z,1380
2017-05-28T09:51:44.552Z,1336
2017-05-28T09:52:45.217Z,1280
2017-05-28T09:53:44.930Z,1232
2017-05-28T09:54:45.278Z,1164
2017-05-28T09:55:44.983Z,1120
2017-05-28T09:56:45.335Z,1100
2017-05-28T09:57:45.356Z,1104
2017-05-28T09:58:45.393Z,1112
2017-05-28T09:59:45.114Z,1176
2017-05-28T10:00:45.455Z,1212
2017-05-28T10:01:45.173Z,1224
2017-05-28T10:02:45.208Z,1196
2017-05-28T10:03:44.919Z,1212
2017-05-28T10:04:45.626Z,1212
2017-05-28T10:05:45.294Z,1232
2017-05-28T10:06:45.627Z,1264
2017-05-28T10:07:45.352Z,1312
2017-05-28T10:08:45.390Z,1384
2017-05-28T10:09:45.726Z,1432
2017-05-28T10:10:45.760Z,1480
2017-05-28T10:11:45.476Z,1492
2017-05-28T10:12:45.198Z,1540
2017-05-28T10:13:45.855Z,1588
2017-05-28T10:14:45.263Z,1604
2017-05-28T10:15:45.603Z,1648
2017-05-28T10:16:45.940Z,1716
2017-05-28T10:17:45.690Z,1776
2017-05-28T10:18:45.684Z,1812
2017-05-28T10:19:46.035Z,1840
2017-05-28T10:20:46.124Z,1860
2017-05-28T10:21:46.097Z,1884
2017-05-28T10:22:46.061Z,1908
2017-05-28T10:23:45.842Z,1928
2017-05-28T10:24:46.186Z,1948
2017-05-28T10:25:45.898Z,1976
2017-05-28T10:26:45.936Z,2004
2017-05-28T10:27:46.170Z,2040
2017-05-28T10:28:46.302Z,2076
2017-05-28T10:29:46.342Z,2116
2017-05-28T10:30:46.375Z,2160
2017-05-28T10:31:46.397Z,2204
2017-05-28T10:32:46.362Z,2244
2017-05-28T10:33:45.841Z,2296
2017-05-28T10:34:45.859Z,2344
2017-05-28T10:35:46.210Z,2380
2017-05-28T10:36:46.232Z,2420
2017-05-28T10:37:46.466Z,2448
2017-05-28T10:38:46.615Z,2476
2017-05-28T10:39:46.642Z,2512
2017-05-28T10:40:46.050Z,2540
2017-05-28T10:41:46.389Z,2584
2017-05-28T10:42:46.057Z,2628
2017-05-28T10:43:46.474Z,2664
2017-05-28T10:44:46.527Z,2704
2017-05-28T10:45:46.879Z,2744
2017-05-28T10:46:46.862Z,2796
2017-05-28T10:47:47.090Z,2828
2017-05-28T10:48:46.922Z,2852
2017-05-28T10:49:46.627Z,2876
2017-05-28T10:50:46.668Z,2900
2017-05-28T10:51:46.699Z,2936
2017-05-28T10:52:47.294Z,2948
2017-05-28T10:53:47.078Z,2960
2017-05-28T10:54:47.105Z,2976
2017-05-28T10:55:47.149Z,3008
2017-05-28T10:56:46.853Z,3024
2017-05-28T10:57:47.136Z,3036
2017-05-28T10:58:46.915Z,3056
2017-05-28T10:59:47.263Z,3080
2017-05-28T11:00:47.285Z,3108
2017-05-28T11:01:47.019Z,3140
2017-05-28T11:02:47.598Z,3168
2017-05-28T11:03:47.375Z,3212
2017-05-28T11:04:47.418Z,3236
2017-05-28T11:05:47.450Z,3248
2017-05-28T11:06:47.163Z,3252
2017-05-28T11:07:47.401Z,3240
2017-05-28T11:08:47.539Z,3256
2017-05-28T11:09:46.939Z,3248
2017-05-28T11:10:47.609Z,3224
2017-05-28T11:11:47.318Z,3252
2017-05-28T11:12:47.857Z,3352
2017-05-28T11:13:47.688Z,3476
2017-05-28T11:14:47.095Z,3648
2017-05-28T11:15:47.440Z,3784
2017-05-28T11:16:47.780Z,3984
2017-05-28T11:17:47.753Z,4040
2017-05-28T11:18:47.847Z,4036
2017-05-28T11:19:47.875Z,4044
2017-05-28T11:20:47.917Z,4036
2017-05-28T11:21:47.941Z,4020
2017-05-28T11:22:47.856Z,3996
2017-05-28T11:23:48.011Z,4004
2017-05-28T11:24:47.724Z,3976
2017-05-28T11:25:48.062Z,3984
2017-05-28T11:26:47.463Z,4048
2017-05-28T11:27:47.746Z,4064
2017-05-28T11:28:47.848Z,4104
2017-05-28T11:29:48.185Z,4172
2017-05-28T11:30:47.901Z,4244
2017-05-28T11:31:47.933Z,4292
2017-05-28T11:32:48.484Z,4448
2017-05-28T11:33:47.697Z,5060
2017-05-28T11:34:48.036Z,6572
2017-05-28T11:35:48.374Z,7456
2017-05-28T11:36:47.781Z,7780
2017-05-28T11:37:48.691Z,8460
2017-05-28T11:38:48.156Z,8976
2017-05-28T11:39:48.501Z,9584
2017-05-28T11:40:48.530Z,10020
2017-05-28T11:41:48.595Z,10320
2017-05-28T11:42:48.852Z,10628
2017-05-28T11:43:48.623Z,11260
2017-05-28T11:44:48.660Z,11912
2017-05-28T11:45:48.681Z,12760
2017-05-28T11:46:48.722Z,15844
2017-05-28T11:47:48.699Z,21792
2017-05-28T11:48:48.792Z,29760
2017-05-28T11:49:48.875Z,36608
2017-05-28T11:50:48.841Z,41568
2017-05-28T11:51:48.880Z,44832
2017-05-28T11:52:49.168Z,46528
2017-05-28T11:53:48.951Z,46272
2017-05-28T11:54:48.668Z,44928
2017-05-28T11:55:48.705Z,44768
2017-05-28T11:56:49.045Z,44384
2017-05-28T11:57:48.979Z,44000
2017-05-28T11:58:49.127Z,44288
2017-05-28T11:59:49.145Z,43648
2017-05-28T12:00:49.178Z,42528
2017-05-28T12:01:49.214Z,41952
2017-05-28T12:02:49.442Z,41280
2017-05-28T12:03:49.276Z,40672
2017-05-28T12:04:49.029Z,41024
2017-05-28T12:05:49.353Z,42656
2017-05-28T12:06:48.757Z,43744
2017-05-28T12:07:49.038Z,44864
2017-05-28T12:08:49.475Z,43072
2017-05-28T12:09:49.177Z,39776
2017-05-28T12:10:49.209Z,38208
2017-05-28T12:11:49.242Z,37792
2017-05-28T12:12:49.836Z,39008
2017-05-28T12:13:49.624Z,42048
2017-05-28T12:14:49.036Z,44000
2017-05-28T12:15:49.693Z,45440
2017-05-28T12:16:49.742Z,44000
2017-05-28T12:17:49.135Z,41472
2017-05-28T12:18:49.168Z,39680
2017-05-28T12:19:49.834Z,40480
2017-05-28T12:20:49.866Z,43648
2017-05-28T12:21:48.965Z,50240
2017-05-28T12:22:49.935Z,58688
2017-05-28T12:23:49.985Z,64704
2017-05-28T12:24:49.404Z,69344
2017-05-28T12:25:50.041Z,70400
2017-05-28T12:26:50.081Z,69376
2017-05-28T12:27:50.116Z,70176
2017-05-28T12:28:49.843Z,70112
2017-05-28T12:29:50.197Z,68000
2017-05-28T12:30:50.221Z,66848
2017-05-28T12:31:50.257Z,66880
2017-05-28T12:32:49.671Z,68288
2017-05-28T12:33:50.264Z,68352
2017-05-28T12:34:49.741Z,66848
2017-05-28T12:35:50.402Z,67552
2017-05-28T12:36:50.431Z,68896
2017-05-28T12:37:50.480Z,69280
2017-05-28T12:38:50.440Z,69152
2017-05-28T12:39:50.229Z,69568
2017-05-28T12:40:49.959Z,70752
2017-05-28T12:41:50.609Z,72320
2017-05-28T12:42:50.345Z,71744
2017-05-28T12:43:50.935Z,70368
2017-05-28T12:44:50.422Z,70176
2017-05-28T12:45:50.773Z,71872
2017-05-28T12:46:50.487Z,72640
2017-05-28T12:47:50.216Z,73248
2017-05-28T12:48:50.757Z,72288
2017-05-28T12:49:50.593Z,71808
2017-05-28T12:50:50.618Z,70816
2017-05-28T12:51:50.355Z,71744
2017-05-28T12:52:50.708Z,70560
2017-05-28T12:53:50.993Z,71264
2017-05-28T12:54:51.098Z,71680
2017-05-28T12:55:51.126Z,71296
2017-05-28T12:56:50.850Z,69280
2017-05-28T12:57:51.204Z,69248
2017-05-28T12:58:51.193Z,68896
2017-05-28T12:59:50.970Z,66144
2017-05-28T13:00:51.003Z,64096
2017-05-28T13:01:51.351Z,63040
2017-05-28T13:02:51.380Z,60320
2017-05-28T13:03:51.365Z,58336
2017-05-28T13:04:51.449Z,57664
2017-05-28T13:05:51.179Z,58400
2017-05-28T13:06:51.523Z,60800
2017-05-28T13:07:51.571Z,59584
2017-05-28T13:08:51.544Z,61536
2017-05-28T13:09:51.018Z,60192
2017-05-28T13:10:51.671Z,58496
2017-05-28T13:11:51.087Z,55904
2017-05-28T13:12:51.749Z,56928
2017-05-28T13:13:51.673Z,53024
2017-05-28T13:14:51.827Z,54592
2017-05-28T13:15:51.546Z,57472
2017-05-28T13:16:51.892Z,64160
2017-05-28T13:17:51.309Z,61504
2017-05-28T13:18:52.165Z,63168
2017-05-28T13:19:52.006Z,62880
2017-05-28T13:20:51.731Z,63840
2017-05-28T13:21:52.072Z,66944
2017-05-28T13:22:52.121Z,70048
2017-05-28T13:23:52.401Z,69856
2017-05-28T13:24:52.200Z,72512
2017-05-28T13:25:52.214Z,74848
2017-05-28T13:26:51.936Z,74464
2017-05-28T13:27:51.989Z,73312
2017-05-28T13:28:52.525Z,71552
2017-05-28T13:29:52.375Z,70048
2017-05-28T13:30:52.405Z,67296
2017-05-28T13:31:52.442Z,66464
2017-05-28T13:32:52.473Z,68032
2017-05-28T13:33:52.773Z,69920
2017-05-28T13:34:52.542Z,67808
2017-05-28T13:35:52.592Z,66720
2017-05-28T13:36:52.304Z,66816
2017-05-28T13:37:52.657Z,63552
2017-05-28T13:38:52.941Z,66560
2017-05-28T13:39:52.418Z,66688
2017-05-28T13:40:52.764Z,64192
2017-05-28T13:41:52.489Z,64640
2017-05-28T13:42:52.516Z,64736
2017-05-28T13:43:53.137Z,63008
2017-05-28T13:44:52.923Z,63456